createdAt,value
2022-09-02T00:02:01.266Z,1.50
2022-09-02T00:25:44.980Z,2.00
2022-09-02T00:29:19.212Z,1.90
2022-09-02T00:32:56.427Z,1.60
2022-09-02T00:46:30.772Z,2.00
2022-09-02T00:50:08.749Z,2.40
2022-09-02T01:05:19.795Z,2.00
2022-09-02T01:08:59.891Z,1.60
2022-09-02T01:12:34.561Z,1.60
2022-09-02T01:25:50.833Z,1.80
2022-09-02T01:29:24.680Z,1.80
2022-09-02T01:32:58.327Z,1.70
2022-09-02T01:46:23.157Z,1.90
2022-09-02T01:49:56.951Z,1.80
2022-09-02T01:53:34.511Z,1.70
2022-09-02T02:06:57.882Z,2.00
2022-09-02T02:10:31.921Z,1.60
2022-09-02T02:14:05.570Z,1.80
2022-09-02T02:17:39.910Z,2.00
2022-09-02T02:21:26.991Z,2.20
2022-09-02T02:34:52.138Z,1.60
2022-09-02T02:38:25.717Z,2.00
2022-09-02T02:41:59.549Z,1.60
2022-09-02T02:55:25.640Z,1.70
2022-09-02T02:59:01.760Z,1.70
2022-09-02T03:13:25.750Z,1.60
2022-09-02T03:17:00.810Z,1.60
2022-09-02T03:20:36.150Z,1.70
2022-09-02T03:28:13.956Z,1.80
2022-09-02T03:45:08.362Z,1.90
2022-09-02T03:48:41.868Z,2.00
2022-09-02T03:51:58.131Z,2.10
2022-09-02T03:55:26.199Z,2.10
2022-09-02T03:59:03.180Z,1.80
2022-09-02T04:02:29.619Z,2.20
2022-09-02T04:08:59.761Z,2.10
2022-09-02T04:12:33.290Z,1.80
2022-09-02T04:16:12.961Z,1.90
2022-09-02T04:19:46.331Z,1.90
2022-09-02T04:37:39.439Z,2.40
2022-09-02T04:41:18.178Z,2.40
2022-09-02T04:44:58.280Z,2.10
2022-09-02T04:58:24.460Z,2.20
2022-09-02T05:02:01.259Z,2.70
2022-09-02T05:05:34.864Z,2.30
2022-09-02T05:09:09.181Z,2.20
2022-09-02T05:12:44.122Z,2.10
2022-09-02T05:26:09.782Z,2.30
2022-09-02T05:29:45.555Z,1.80
2022-09-02T05:33:19.559Z,2.10
2022-09-02T05:50:03.302Z,1.80
2022-09-02T05:53:36.861Z,1.90
2022-09-02T05:57:14.813Z,1.90
2022-09-02T06:10:46.270Z,2.00
2022-09-02T06:14:25.516Z,1.70
2022-09-02T06:18:02.219Z,1.70
2022-09-02T06:24:43.730Z,1.70
2022-09-02T06:28:19.078Z,1.70
2022-09-02T06:31:54.987Z,1.70
2022-09-02T06:35:28.401Z,1.60
2022-09-02T06:39:03.460Z,1.70
2022-09-02T06:42:37.330Z,1.70
2022-09-02T06:56:10.202Z,1.60
2022-09-02T06:59:43.881Z,1.90
2022-09-02T07:03:36.026Z,1.60
2022-09-02T07:10:17.591Z,1.50
2022-09-02T07:13:51.822Z,1.50
2022-09-02T07:31:01.414Z,1.70
2022-09-02T07:34:32.534Z,1.40
2022-09-02T07:38:04.670Z,1.80
2022-09-02T07:41:35.919Z,1.70
2022-09-02T07:45:08.839Z,1.50
2022-09-02T07:48:39.630Z,1.60
2022-09-02T07:52:11.484Z,1.30
2022-09-02T08:13:02.671Z,0.80
2022-09-02T08:16:36.334Z,0.70
2022-09-02T08:23:49.640Z,0.70
2022-09-02T08:27:23.121Z,1.00
2022-09-02T08:41:03.100Z,0.60
2022-09-02T08:44:37.435Z,0.70
2022-09-02T08:48:16.211Z,0.70
2022-09-02T08:51:53.335Z,0.80
2022-09-02T09:06:24.027Z,0.60
2022-09-02T09:10:11.970Z,0.70
2022-09-02T09:14:05.371Z,0.70
2022-09-02T09:17:45.570Z,0.70
2022-09-02T09:38:16.971Z,0.70
2022-09-02T09:41:51.652Z,0.60
2022-09-02T09:45:32.824Z,0.60
2022-09-02T09:49:07.472Z,1.10
2022-09-02T09:52:45.761Z,0.70
2022-09-02T09:56:29.289Z,0.60
2022-09-02T10:00:04.426Z,0.50
2022-09-02T10:03:32.928Z,0.90
2022-09-02T10:06:59.460Z,0.60
2022-09-02T10:20:31.890Z,0.60
2022-09-02T10:24:13.919Z,0.60
2022-09-02T10:27:59.505Z,0.60
2022-09-02T10:31:40.654Z,0.90
2022-09-02T10:55:43.230Z,0.40
2022-09-02T10:59:24.071Z,0.70
2022-09-02T11:03:09.006Z,0.70
2022-09-02T11:27:04.431Z,0.70
2022-09-02T11:30:48.819Z,0.60
2022-09-02T11:34:36.047Z,0.70
2022-09-02T11:38:20.925Z,0.60
2022-09-02T12:00:08.450Z,0.50
2022-09-02T12:04:39.790Z,0.80
2022-09-02T12:07:53.552Z,0.40
2022-09-02T12:21:28.950Z,0.40
2022-09-02T12:25:04.860Z,0.50
2022-09-02T12:28:42.221Z,0.70
2022-09-02T12:46:29.620Z,0.80
2022-09-02T12:50:09.328Z,0.80
2022-09-02T12:53:48.613Z,0.70
2022-09-02T13:11:12.450Z,0.70
2022-09-02T13:15:23.387Z,0.70
2022-09-02T13:19:23.021Z,0.70
2022-09-02T13:36:36.961Z,1.00
2022-09-02T13:40:28.480Z,0.90
2022-09-02T13:44:13.125Z,0.90
2022-09-02T14:08:32.471Z,0.90
2022-09-02T14:12:08.038Z,0.90
2022-09-02T14:15:42.046Z,0.90
2022-09-02T14:19:28.011Z,0.90
2022-09-02T14:23:04.231Z,0.90
2022-09-02T14:26:43.220Z,0.70
2022-09-02T14:30:31.721Z,0.90
2022-09-02T14:33:58.622Z,0.80
2022-09-02T14:37:28.978Z,0.70
2022-09-02T14:41:06.508Z,0.90
2022-09-02T14:44:41.132Z,0.80
2022-09-02T15:02:25.850Z,1.00
2022-09-02T15:06:06.150Z,0.90
2022-09-02T15:09:45.060Z,0.80
2022-09-02T15:19:52.630Z,1.10
2022-09-02T15:23:23.880Z,0.90
2022-09-02T15:26:55.653Z,0.80
2022-09-02T15:36:46.920Z,1.00
2022-09-02T15:40:22.513Z,0.90
2022-09-02T15:43:58.090Z,0.70
2022-09-02T15:57:23.698Z,0.70
2022-09-02T16:00:48.590Z,0.70
2022-09-02T16:04:23.222Z,0.80
2022-09-02T16:07:56.735Z,0.80
2022-09-02T16:21:43.649Z,0.80
2022-09-02T16:25:17.445Z,0.90
2022-09-02T16:28:52.902Z,0.80
2022-09-02T16:42:40.800Z,1.40
2022-09-02T16:46:11.711Z,1.50
2022-09-02T16:49:42.814Z,2.10
2022-09-02T16:56:34.896Z,2.50
2022-09-02T17:00:10.946Z,2.60
2022-09-02T17:03:47.459Z,2.50
2022-09-02T17:20:32.842Z,1.20
2022-09-02T17:24:08.442Z,1.10
2022-09-02T17:27:44.020Z,1.10
2022-09-02T17:31:49.536Z,1.10
2022-09-02T17:49:15.364Z,2.40
2022-09-02T17:52:48.289Z,2.10
2022-09-02T17:56:50.422Z,2.00
2022-09-02T18:00:27.111Z,2.00
2022-09-02T18:04:27.041Z,2.20
2022-09-02T18:21:21.559Z,2.10
2022-09-02T18:25:16.853Z,2.00
2022-09-02T18:29:01.237Z,1.80
2022-09-02T18:33:02.876Z,2.20
2022-09-02T18:46:27.402Z,2.50
2022-09-02T18:50:22.115Z,2.60
2022-09-02T18:54:17.894Z,2.50
2022-09-02T18:58:03.225Z,3.20
2022-09-02T19:11:34.401Z,2.30
2022-09-02T19:15:17.465Z,3.00
2022-09-02T19:18:59.522Z,2.10
2022-09-02T19:28:56.781Z,2.00
2022-09-02T19:32:33.889Z,1.30
2022-09-02T19:36:13.721Z,1.70
2022-09-02T19:53:22.725Z,1.50
2022-09-02T19:56:57.591Z,1.70
2022-09-02T20:00:33.882Z,1.90
2022-09-02T20:04:09.288Z,1.70
2022-09-02T20:07:35.231Z,1.50
2022-09-02T20:21:06.391Z,1.80
2022-09-02T20:24:40.231Z,1.90
2022-09-02T20:28:35.575Z,1.70
2022-09-02T20:39:05.011Z,1.50
2022-09-02T20:43:07.661Z,1.60
2022-09-02T20:46:54.681Z,2.30
2022-09-02T21:03:59.527Z,1.30
2022-09-02T21:07:43.039Z,1.60
2022-09-02T21:11:18.050Z,1.70
2022-09-02T21:28:44.361Z,1.90
2022-09-02T21:32:26.693Z,2.00
2022-09-02T21:39:17.292Z,1.60
2022-09-02T21:43:12.961Z,1.60
2022-09-02T22:00:09.489Z,1.50
2022-09-02T22:03:55.403Z,1.60
2022-09-02T22:07:35.374Z,1.50
2022-09-02T22:11:16.723Z,1.80
2022-09-02T22:14:59.630Z,2.10
2022-09-02T22:28:28.981Z,2.10
2022-09-02T22:32:10.441Z,1.70
2022-09-02T22:35:54.530Z,1.90
2022-09-02T22:46:14.025Z,1.90
2022-09-02T22:50:10.402Z,1.80
2022-09-02T22:53:44.121Z,1.90
2022-09-02T23:07:06.571Z,2.30
2022-09-02T23:10:47.882Z,2.00
2022-09-02T23:14:36.201Z,2.20
2022-09-02T23:18:45.831Z,2.00
2022-09-02T23:32:33.762Z,1.50
2022-09-02T23:36:14.692Z,2.00
2022-09-02T23:40:02.952Z,2.20
2022-09-02T23:46:44.081Z,1.90
2022-09-02T23:50:26.947Z,2.30
2022-09-02T23:54:18.071Z,2.10
